.
WxDataArchive / Data Records for 2008-12-07
2008-12-06 December 2008 2008-12-08

Data Records for Sunday, 07 December 2008

Time	Temp	Chill	HIndex	Humid	Dewpt	 Wind 	HiWind	WindDir	Rain 	Barom 
-----	----	-----	------	-----	-----	------	------	-------	-----	----- 
00:00	23.6	23.6	23.6	78	17.8	3	6	270	0.00	29.945 
00:05	23.5	23.5	23.5	78	17.7	3	9	270	0.00	29.948 
00:10	23.3	23.3	23.3	78	17.5	3	7	270	0.00	29.954 
00:15	23.2	23.2	23.2	78	17.4	2	7	270	0.00	29.955 
00:20	23.0	23.0	23.0	79	17.5	3	7	270	0.00	29.955 
00:25	22.9	22.9	22.9	78	17.1	2	5	248	0.00	29.957 
00:30	22.9	22.9	22.9	78	17.1	3	7	270	0.00	29.961 
00:35	22.7	22.7	22.7	78	16.9	2	8	270	0.00	29.966 
00:40	22.7	22.7	22.7	79	17.2	2	6	315	0.00	29.969 
00:45	22.7	22.7	22.7	79	17.2	2	5	315	0.00	29.972 
00:50	22.5	22.5	22.5	78	16.7	2	4	338	0.00	29.973 
00:55	22.5	22.5	22.5	78	16.7	2	5	270	0.00	29.974 
01:00	22.5	22.5	22.5	77	16.4	2	7	292	0.00	29.976 
01:05	22.4	22.4	22.4	77	16.3	1	6	315	0.00	29.980 
01:10	22.4	22.4	22.4	77	16.3	2	6	270	0.00	29.983 
01:15	22.4	22.4	22.4	77	16.3	2	5	270	0.00	29.986 
01:20	22.2	22.2	22.2	76	15.8	2	5	270	0.00	29.988 
01:25	21.9	21.9	21.9	77	15.8	3	6	270	0.00	29.988 
01:30	21.9	21.9	21.9	77	15.8	1	3	338	0.00	29.990 
01:35	21.9	21.9	21.9	77	15.8	1	4	248	0.00	29.991 
01:40	21.9	21.9	21.9	78	16.1	1	3	315	0.00	29.993 
01:45	21.9	21.9	21.9	78	16.1	1	4	270	0.00	29.996 
01:50	21.9	21.9	21.9	78	16.1	1	5	270	0.00	30.001 
01:55	21.9	21.9	21.9	78	16.1	1	4	248	0.00	30.004 
02:00	21.9	21.9	21.9	78	16.1	1	4	338	0.00	30.005 
02:05	21.8	21.8	21.8	79	16.3	1	4	248	0.00	30.006 
02:10	21.8	21.8	21.8	79	16.3	1	4	270	0.00	30.008 
02:15	21.8	21.8	21.8	79	16.3	1	2	315	0.00	30.014 
02:20	21.8	21.8	21.8	79	16.3	1	2	315	0.00	30.015 
02:25	21.6	21.6	21.6	79	16.1	1	3	315	0.00	30.015 
02:30	21.6	21.6	21.6	79	16.1	1	2	338	0.00	30.018 
02:35	21.4	21.4	21.4	78	15.6	1	5	270	0.00	30.019 
02:40	21.3	21.3	21.3	78	15.5	1	3	270	0.00	30.021 
02:45	21.3	21.3	21.3	78	15.5	1	3	315	0.00	30.025 
02:50	21.3	21.3	21.3	78	15.5	1	3	270	0.00	30.032 
02:55	21.1	21.1	21.1	79	15.6	0	2	315	0.00	30.036 
03:00	20.8	20.8	20.8	81	15.9	1	4	292	0.00	30.037 
03:05	20.6	20.6	20.6	82	16.0	0	2	315	0.00	30.038 
03:10	20.5	20.5	20.5	84	16.4	0	2	338	0.00	30.042 
03:15	20.3	20.3	20.3	85	16.5	0	1	338	0.00	30.046 
03:20	20.3	20.3	20.3	85	16.5	0	1	338	0.00	30.049 
03:25	20.3	20.3	20.3	86	16.8	1	3	338	0.00	30.049 
03:30	20.2	20.2	20.2	86	16.7	0	2	315	0.00	30.051 
03:35	19.9	19.9	19.9	86	16.4	0	2	338	0.00	30.052 
03:40	19.7	19.7	19.7	86	16.2	0	1	338	0.00	30.052 
03:45	19.7	19.7	19.7	86	16.2	0	1	338	0.00	30.056 
03:50	19.5	19.5	19.5	86	16.0	0	1	338	0.00	30.061 
03:55	19.5	19.5	19.5	85	15.7	0	1	338	0.00	30.065 
04:00	19.4	19.4	19.4	85	15.6	0	1	338	0.00	30.067 
04:05	19.4	19.4	19.4	84	15.4	1	3	270	0.00	30.070 
04:10	19.4	19.4	19.4	84	15.4	0	3	270	0.00	30.072 
04:15	19.4	19.4	19.4	84	15.4	0	2	292	0.00	30.077 
04:20	19.2	19.2	19.2	83	14.9	0	2	248	0.00	30.078 
04:25	19.1	19.1	19.1	82	14.5	0	3	248	0.00	30.082 
04:30	18.8	18.8	18.8	81	14.0	0	1	248	0.00	30.084 
04:35	18.8	18.8	18.8	81	14.0	0	2	248	0.00	30.086 
04:40	18.8	18.8	18.8	81	14.0	0	1	248	0.00	30.088 
04:45	18.9	18.9	18.9	81	14.1	0	2	248	0.00	30.088 
04:50	19.1	19.1	19.1	81	14.2	0	1	315	0.00	30.087 
04:55	19.1	19.1	19.1	81	14.2	1	3	338	0.00	30.088 
05:00	19.1	19.1	19.1	81	14.2	0	2	270	0.00	30.090 
05:05	19.1	19.1	19.1	81	14.2	0	1	292	0.00	30.093 
05:10	19.1	19.1	19.1	81	14.2	0	1	248	0.00	30.101 
05:15	19.2	19.2	19.2	82	14.6	0	2	248	0.00	30.103 
05:20	19.2	19.2	19.2	82	14.6	0	2	315	0.00	30.104 
05:25	19.4	19.4	19.4	82	14.8	1	3	270	0.00	30.108 
05:30	19.4	19.4	19.4	82	14.8	0	2	315	0.00	30.115 
05:35	19.4	19.4	19.4	82	14.8	0	2	315	0.00	30.117 
05:40	19.4	19.4	19.4	83	15.1	0	2	315	0.00	30.117 
05:45	19.4	19.4	19.4	83	15.1	0	1	315	0.00	30.121 
05:50	19.4	19.4	19.4	83	15.1	0	2	315	0.00	30.122 
05:55	19.4	19.4	19.4	84	15.4	0	2	315	0.00	30.124 
06:00	19.4	19.4	19.4	84	15.4	0	2	270	0.00	30.130 
06:05	19.4	19.4	19.4	84	15.4	0	1	270	0.00	30.133 
06:10	19.2	19.2	19.2	84	15.2	0	1	270	0.00	30.135 
06:15	19.2	19.2	19.2	84	15.2	0	1	270	0.00	30.137 
06:20	19.2	19.2	19.2	84	15.2	0	0	---	0.00	30.140 
06:25	19.2	19.2	19.2	85	15.4	0	0	---	0.00	30.142 
06:30	19.2	19.2	19.2	85	15.4	0	1	270	0.00	30.146 
06:35	19.2	19.2	19.2	85	15.4	0	1	270	0.00	30.147 
06:40	19.2	19.2	19.2	85	15.4	0	1	270	0.00	30.150 
06:45	19.2	19.2	19.2	85	15.4	0	0	---	0.00	30.152 
06:50	19.2	19.2	19.2	85	15.4	0	1	270	0.00	30.154 
06:55	19.2	19.2	19.2	85	15.4	0	1	270	0.00	30.157 
07:00	19.1	19.1	19.1	85	15.3	0	1	270	0.00	30.162 
07:05	18.9	18.9	18.9	85	15.2	0	1	270	0.00	30.163 
07:10	18.8	18.8	18.8	84	14.8	0	0	---	0.00	30.169 
07:15	18.6	18.6	18.6	85	14.9	0	0	---	0.00	30.175 
07:20	18.4	18.4	18.4	85	14.7	0	0	---	0.00	30.181 
07:25	18.4	18.4	18.4	85	14.7	0	1	270	0.00	30.180 
07:30	18.4	18.4	18.4	85	14.7	0	2	270	0.00	30.182 
07:35	18.3	18.3	18.3	85	14.6	0	0	---	0.00	30.185 
07:40	18.1	18.1	18.1	84	14.1	0	0	---	0.00	30.186 
07:45	17.8	17.8	17.8	85	14.1	0	0	---	0.00	30.196 
07:50	17.8	17.8	17.8	85	14.1	0	0	---	0.00	30.197 
07:55	17.8	17.8	17.8	85	14.1	0	0	---	0.00	30.197 
08:00	17.8	17.8	17.8	85	14.1	0	0	---	0.00	30.199 
08:05	17.7	17.7	17.7	85	14.0	0	0	---	0.00	30.199 
08:10	17.5	17.5	17.5	85	13.8	0	0	---	0.00	30.204 
08:15	17.5	17.5	17.5	85	13.8	0	0	---	0.00	30.210 
08:20	17.5	17.5	17.5	85	13.8	0	0	---	0.00	30.214 
08:25	17.5	17.5	17.5	86	14.0	0	0	---	0.00	30.213 
08:30	17.7	17.7	17.7	86	14.2	0	0	---	0.00	30.214 
08:35	17.8	17.8	17.8	86	14.3	0	1	270	0.00	30.216 
08:40	18.0	18.0	18.0	86	14.5	0	3	248	0.00	30.221 
08:45	17.8	17.8	17.8	85	14.1	1	3	248	0.00	30.227 
08:50	17.2	17.2	17.2	83	12.9	1	4	248	0.00	30.228 
08:55	16.9	16.9	16.9	83	12.6	1	4	248	0.00	30.232 
09:00	16.7	16.7	16.7	83	12.5	1	6	248	0.00	30.232 
09:05	16.5	16.5	16.5	83	12.3	1	4	248	0.00	30.233 
09:10	16.5	16.5	16.5	82	12.0	1	3	248	0.00	30.233 
09:15	16.5	16.5	16.5	82	12.0	0	2	248	0.00	30.233 
09:20	16.7	16.7	16.7	82	12.2	0	2	248	0.00	30.235 
09:25	16.9	16.9	16.9	82	12.4	1	5	248	0.00	30.236 
09:30	16.7	16.7	16.7	81	11.9	0	2	248	0.00	30.239 
09:35	16.7	16.7	16.7	81	11.9	1	3	248	0.00	30.242 
09:40	16.5	16.5	16.5	80	11.4	1	2	248	0.00	30.245 
09:45	16.5	16.5	16.5	80	11.4	1	3	225	0.00	30.248 
09:50	16.5	16.5	16.5	80	11.4	1	4	248	0.00	30.248 
09:55	16.5	16.5	16.5	80	11.4	0	4	248	0.00	30.248 
10:00	16.7	16.7	16.7	80	11.6	1	3	248	0.00	30.247 
10:05	17.0	17.0	17.0	81	12.2	0	2	248	0.00	30.249 
10:10	17.5	17.5	17.5	81	12.7	1	3	248	0.00	30.251 
10:15	17.5	17.5	17.5	80	12.4	1	2	248	0.00	30.254 
10:20	17.2	17.2	17.2	79	11.8	1	3	248	0.00	30.259 
10:25	17.3	17.3	17.3	80	12.2	0	1	248	0.00	30.262 
10:30	17.5	17.5	17.5	80	12.4	1	2	248	0.00	30.263 
10:35	17.5	17.5	17.5	79	12.1	0	2	248	0.00	30.263 
10:40	17.7	17.7	17.7	79	12.3	0	3	248	0.00	30.260 
10:45	17.8	17.8	17.8	79	12.4	0	1	248	0.00	30.256 
10:50	18.0	18.0	18.0	79	12.6	0	3	248	0.00	30.253 
10:55	18.1	18.1	18.1	79	12.7	0	1	248	0.00	30.254 
11:00	18.4	18.4	18.4	78	12.7	0	2	248	0.00	30.255 
11:05	18.8	18.8	18.8	78	13.1	0	2	248	0.00	30.252 
11:10	18.9	18.9	18.9	77	12.9	0	2	248	0.00	30.251 
11:15	19.2	19.2	19.2	77	13.2	0	3	248	0.00	30.254 
11:20	19.4	19.4	19.4	77	13.4	0	2	248	0.00	30.253 
11:25	19.7	19.7	19.7	76	13.4	0	2	248	0.00	30.250 
11:30	20.0	20.0	20.0	76	13.7	0	1	248	0.00	30.250 
11:35	20.3	20.3	20.3	75	13.7	1	2	248	0.00	30.251 
11:40	20.6	20.6	20.6	75	14.0	0	2	248	0.00	30.249 
11:45	20.8	20.8	20.8	74	13.8	0	2	248	0.00	30.250 
11:50	20.8	20.8	20.8	74	13.8	1	2	248	0.00	30.249 
11:55	21.1	21.1	21.1	73	13.8	1	2	248	0.00	30.249 
12:00	21.0	21.0	21.0	73	13.7	2	4	248	0.00	30.250 
12:05	21.0	21.0	21.0	72	13.4	0	2	248	0.00	30.248 
12:10	21.0	21.0	21.0	73	13.7	1	3	248	0.00	30.247 
12:15	21.1	21.1	21.1	72	13.5	0	2	248	0.00	30.247 
12:20	21.4	21.4	21.4	72	13.8	0	1	248	0.00	30.248 
12:25	21.6	21.6	21.6	71	13.7	0	2	248	0.00	30.249 
12:30	21.8	21.8	21.8	70	13.5	1	2	248	0.00	30.249 
12:35	21.8	21.8	21.8	70	13.5	1	3	248	0.00	30.250 
12:40	21.8	21.8	21.8	71	13.9	1	3	248	0.00	30.253 
12:45	21.9	21.9	21.9	72	14.3	0	2	248	0.00	30.250 
12:50	22.1	22.1	22.1	70	13.8	1	3	248	0.00	30.249 
12:55	22.2	22.2	22.2	69	13.6	1	3	248	0.00	30.248 
13:00	22.1	22.1	22.1	69	13.5	1	3	248	0.00	30.248 
13:05	21.9	21.9	21.9	69	13.3	1	4	248	0.00	30.247 
13:10	22.1	22.1	22.1	69	13.5	1	3	248	0.00	30.243 
13:15	22.4	22.4	22.4	69	13.8	0	3	248	0.00	30.239 
13:20	22.9	22.9	22.9	68	13.9	1	4	248	0.00	30.239 
13:25	23.0	23.0	23.0	67	13.7	1	3	248	0.00	30.244 
13:30	23.3	23.3	23.3	66	13.6	1	3	248	0.00	30.246 
13:35	23.3	23.3	23.3	65	13.3	1	3	248	0.00	30.246 
13:40	23.2	23.2	23.2	64	12.9	1	3	248	0.00	30.247 
13:45	23.3	23.3	23.3	64	13.0	1	3	225	0.00	30.247 
13:50	23.3	23.3	23.3	64	13.0	0	1	338	0.00	30.247 
13:55	23.5	23.5	23.5	64	13.1	1	3	225	0.00	30.245 
14:00	23.8	23.8	23.8	63	13.1	1	4	248	0.00	30.242 
14:05	24.2	24.2	24.2	62	13.1	2	5	248	0.00	30.245 
14:10	24.5	24.5	24.5	60	12.6	1	3	248	0.00	30.242 
14:15	24.5	24.5	24.5	59	12.3	1	3	248	0.00	30.238 
14:20	24.4	24.4	24.4	57	11.4	1	2	338	0.00	30.239 
14:25	24.4	24.4	24.4	57	11.4	0	2	248	0.00	30.247 
14:30	24.2	24.2	24.2	57	11.2	1	3	315	0.00	30.245 
14:35	24.1	24.1	24.1	57	11.1	1	3	315	0.00	30.247 
14:40	24.2	24.2	24.2	57	11.2	1	2	315	0.00	30.247 
14:45	24.2	24.2	24.2	57	11.2	0	2	225	0.00	30.247 
14:50	24.1	24.1	24.1	59	11.9	0	2	225	0.00	30.242 
14:55	23.9	23.9	23.9	58	11.3	1	3	225	0.00	30.244 
15:00	23.6	23.6	23.6	59	11.4	0	3	248	0.00	30.246 
15:05	23.5	23.5	23.5	59	11.3	0	2	248	0.00	30.247 
15:10	23.6	23.6	23.6	58	11.0	0	2	248	0.00	30.245 
15:15	23.9	23.9	23.9	58	11.3	1	4	248	0.00	30.249 
15:20	24.2	24.2	24.2	58	11.6	1	4	248	0.00	30.248 
15:25	24.4	24.4	24.4	57	11.4	1	3	248	0.00	30.249 
15:30	24.2	24.2	24.2	57	11.2	1	3	248	0.00	30.249 
15:35	23.9	23.9	23.9	58	11.3	1	3	248	0.00	30.250 
15:40	23.6	23.6	23.6	59	11.4	1	4	248	0.00	30.250 
15:45	23.6	23.6	23.6	59	11.4	1	4	248	0.00	30.250 
15:50	23.5	23.5	23.5	59	11.3	0	2	248	0.00	30.249 
15:55	23.5	23.5	23.5	59	11.3	0	2	248	0.00	30.246 
16:00	23.3	23.3	23.3	61	11.9	1	2	248	0.00	30.242 
16:05	23.2	23.2	23.2	61	11.8	0	1	248	0.00	30.238 
16:10	22.9	22.9	22.9	60	11.1	1	3	270	0.00	30.240 
16:15	22.9	22.9	22.9	61	11.5	1	3	270	0.00	30.238 
16:20	22.9	22.9	22.9	62	11.9	1	2	248	0.00	30.235 
16:25	22.9	22.9	22.9	63	12.2	0	1	248	0.00	30.233 
16:30	22.7	22.7	22.7	63	12.0	0	1	248	0.00	30.232 
16:35	22.7	22.7	22.7	63	12.0	0	1	248	0.00	30.233 
16:40	22.7	22.7	22.7	64	12.4	0	1	248	0.00	30.233 
16:45	22.5	22.5	22.5	64	12.2	0	1	248	0.00	30.233 
16:50	22.4	22.4	22.4	65	12.4	0	2	248	0.00	30.234 
16:55	22.4	22.4	22.4	65	12.4	0	2	248	0.00	30.243 
17:00	22.2	22.2	22.2	65	12.3	0	2	248	0.00	30.236 
17:05	22.2	22.2	22.2	65	12.3	0	2	248	0.00	30.236 
17:10	22.2	22.2	22.2	66	12.6	0	1	248	0.00	30.241 
17:15	22.1	22.1	22.1	65	12.2	1	4	248	0.00	30.244 
17:20	22.1	22.1	22.1	65	12.2	0	2	248	0.00	30.240 
17:25	22.1	22.1	22.1	65	12.2	0	2	248	0.00	30.239 
17:30	22.1	22.1	22.1	65	12.2	0	2	248	0.00	30.236 
17:35	22.1	22.1	22.1	65	12.2	0	2	248	0.00	30.240 
17:40	22.1	22.1	22.1	65	12.2	0	1	248	0.00	30.242 
17:45	22.1	22.1	22.1	65	12.2	1	2	248	0.00	30.240 
17:50	21.9	21.9	21.9	65	12.0	0	2	248	0.00	30.241 
17:55	21.9	21.9	21.9	65	12.0	0	2	248	0.00	30.241 
18:00	21.9	21.9	21.9	66	12.3	0	1	248	0.00	30.238 
18:05	21.9	21.9	21.9	66	12.3	0	2	248	0.00	30.237 
18:10	21.9	21.9	21.9	68	13.0	0	2	248	0.00	30.237 
18:15	21.9	21.9	21.9	69	13.3	0	1	248	0.00	30.244 
18:20	21.8	21.8	21.8	69	13.2	0	1	248	0.00	30.250 
18:25	21.6	21.6	21.6	70	13.4	0	2	248	0.00	30.253 
18:30	21.4	21.4	21.4	70	13.2	0	1	248	0.00	30.253 
18:35	21.3	21.3	21.3	71	13.4	0	0	---	0.00	30.250 
18:40	21.3	21.3	21.3	71	13.4	0	2	248	0.00	30.251 
18:45	21.1	21.1	21.1	71	13.2	0	1	248	0.00	30.249 
18:50	21.1	21.1	21.1	71	13.2	0	1	248	0.00	30.248 
18:55	21.0	21.0	21.0	71	13.1	0	1	248	0.00	30.247 
19:00	21.0	21.0	21.0	72	13.4	0	1	248	0.00	30.243 
19:05	21.0	21.0	21.0	72	13.4	0	1	248	0.00	30.241 
19:10	20.8	20.8	20.8	72	13.2	0	1	248	0.00	30.244 
19:15	20.8	20.8	20.8	72	13.2	0	1	248	0.00	30.240 
19:20	20.8	20.8	20.8	72	13.2	0	2	248	0.00	30.238 
19:25	20.6	20.6	20.6	72	13.0	0	1	248	0.00	30.236 
19:30	20.6	20.6	20.6	72	13.0	0	1	248	0.00	30.236 
19:35	20.6	20.6	20.6	72	13.0	0	2	202	0.00	30.236 
19:40	20.6	20.6	20.6	71	12.7	0	2	202	0.00	30.238 
19:45	20.5	20.5	20.5	72	12.9	0	1	202	0.00	30.242 
19:50	20.5	20.5	20.5	72	12.9	0	1	202	0.00	30.246 
19:55	20.5	20.5	20.5	72	12.9	0	2	202	0.00	30.246 
20:00	20.3	20.3	20.3	72	12.7	0	1	338	0.00	30.245 
20:05	20.3	20.3	20.3	72	12.7	0	2	315	0.00	30.249 
20:10	20.2	20.2	20.2	71	12.3	0	1	292	0.00	30.243 
20:15	20.2	20.2	20.2	71	12.3	0	2	292	0.00	30.245 
20:20	20.2	20.2	20.2	71	12.3	0	2	292	0.00	30.250 
20:25	20.2	20.2	20.2	70	12.0	0	0	---	0.00	30.252 
20:30	20.2	20.2	20.2	70	12.0	0	1	292	0.00	30.241 
20:35	20.0	20.0	20.0	70	11.8	0	2	112	0.00	30.234 
20:40	20.2	20.2	20.2	70	12.0	0	3	90	0.00	30.231 
20:45	20.2	20.2	20.2	70	12.0	0	2	90	0.00	30.225 
20:50	20.2	20.2	20.2	70	12.0	1	3	112	0.00	30.224 
20:55	20.2	20.2	20.2	70	12.0	0	2	135	0.00	30.222 
21:00	20.2	20.2	20.2	70	12.0	0	1	112	0.00	30.218 
21:05	20.2	20.2	20.2	71	12.3	0	2	112	0.00	30.214 
21:10	20.2	20.2	20.2	71	12.3	0	4	135	0.00	30.211 
21:15	20.2	20.2	20.2	71	12.3	0	1	135	0.00	30.213 
21:20	20.2	20.2	20.2	71	12.3	0	1	135	0.00	30.218 
21:25	20.3	20.3	20.3	72	12.7	0	2	112	0.00	30.209 
21:30	20.3	20.3	20.3	72	12.7	0	1	158	0.00	30.216 
21:35	20.3	20.3	20.3	72	12.7	0	1	158	0.00	30.217 
21:40	20.3	20.3	20.3	72	12.7	1	3	135	0.00	30.210 
21:45	20.3	20.3	20.3	72	12.7	0	1	135	0.00	30.210 
21:50	20.3	20.3	20.3	72	12.7	0	4	90	0.00	30.206 
21:55	20.2	20.2	20.2	72	12.6	0	3	90	0.00	30.208 
22:00	20.2	20.2	20.2	72	12.6	0	3	112	0.00	30.207 
22:05	20.2	20.2	20.2	71	12.3	0	2	135	0.00	30.207 
22:10	20.2	20.2	20.2	71	12.3	0	1	135	0.00	30.208 
22:15	20.2	20.2	20.2	72	12.6	0	1	135	0.00	30.205 
22:20	20.2	20.2	20.2	72	12.6	0	2	135	0.00	30.197 
22:25	20.2	20.2	20.2	72	12.6	0	1	135	0.00	30.203 
22:30	20.2	20.2	20.2	73	13.0	0	2	135	0.00	30.202 
22:35	20.2	20.2	20.2	73	13.0	0	2	90	0.00	30.206 
22:40	20.3	20.3	20.3	73	13.1	0	2	135	0.00	30.201 
22:45	20.3	20.3	20.3	72	12.7	0	3	112	0.00	30.205 
22:50	20.3	20.3	20.3	73	13.1	0	2	112	0.00	30.201 
22:55	20.3	20.3	20.3	73	13.1	0	2	112	0.00	30.203 
23:00	20.5	20.5	20.5	73	13.2	0	1	68	0.00	30.207 
23:05	20.5	20.5	20.5	73	13.2	0	2	68	0.00	30.198 
23:10	20.5	20.5	20.5	73	13.2	1	2	135	0.00	30.196 
23:15	20.5	20.5	20.5	73	13.2	0	1	68	0.00	30.195 
23:20	20.5	20.5	20.5	73	13.2	0	2	135	0.00	30.194 
23:25	20.6	20.6	20.6	73	13.3	0	3	112	0.00	30.199 
23:30	20.6	20.6	20.6	73	13.3	0	1	112	0.00	30.199 
23:35	20.6	20.6	20.6	73	13.3	0	1	112	0.00	30.200 
23:40	20.8	20.8	20.8	73	13.5	0	2	112	0.00	30.201 
23:45	20.8	20.8	20.8	73	13.5	1	3	112	0.00	30.201 
23:50	20.8	20.8	20.8	73	13.5	1	2	112	0.00	30.200 
23:55	20.8	20.8	20.8	73	13.5	1	2	135	0.00	30.194 

CoCoRaHS
IN-AL-39
A2 Web Hosting
Creative Commons License
GoDaddy
search engine by freefind advanced

loaded 2018-11-15 03:48:49 • last modified 2010-11-18 10:43:29
Privacy PolicyDisclaimer
• wx.awcolley.com is powered by PmWiki v.2002016 •
• all content (unless otherwise noted) © 2018 A W Colley